Seattle, Washington
Traffic Map
Current Weather Conditions
Seattle, Washington
Overcast
Overcast
73°
Feels Like: 73°
Wind Chill: 73° Ceiling: 6500
Heat Index: 73° Visibility: 10mi
Dew Point: 57° Wind: 5mph
Humidity: 57% Direction: 340° (NNW)
Pressure: 30.06in Gusts: 0mph
Raw Report DataKBFI 170353Z 34004KT 10SM OVC065 23/14 A3006 RMK AO2 SLP179 T02280139
Traffic Incident Summary
Active as of:
Severity:
Category:
InformationThere was an issue retrieving the traffic information for this location. Please try a different location or try again shortly.
Advertisements